createdAt,value
2024-04-16T00:00:50.922Z,41.60
2024-04-16T00:01:50.979Z,41.59
2024-04-16T00:02:50.905Z,41.59
2024-04-16T00:03:50.887Z,41.56
2024-04-16T00:04:51.070Z,41.57
2024-04-16T00:05:50.901Z,41.55
2024-04-16T00:06:51.069Z,41.54
2024-04-16T00:07:53.735Z,41.51
2024-04-16T00:08:50.894Z,41.55
2024-04-16T00:09:50.881Z,41.52
2024-04-16T00:10:50.996Z,41.52
2024-04-16T00:11:50.879Z,41.52
2024-04-16T00:12:50.884Z,41.50
2024-04-16T00:13:50.870Z,41.48
2024-04-16T00:14:50.872Z,41.50
2024-04-16T00:15:50.893Z,41.49
2024-04-16T00:16:50.983Z,41.49
2024-04-16T00:17:51.035Z,41.51
2024-04-16T00:18:50.892Z,41.47
2024-04-16T00:19:50.867Z,41.45
2024-04-16T00:20:50.890Z,41.46
2024-04-16T00:21:50.884Z,41.45
2024-04-16T00:22:50.897Z,41.44
2024-04-16T00:23:50.884Z,41.47
2024-04-16T00:24:50.876Z,41.43
2024-04-16T00:25:50.866Z,41.44
2024-04-16T00:26:50.858Z,41.45
2024-04-16T00:27:50.885Z,41.43
2024-04-16T00:28:50.869Z,41.40
2024-04-16T00:29:50.872Z,41.39
2024-04-16T00:30:50.873Z,41.37
2024-04-16T00:31:50.963Z,41.39
2024-04-16T00:32:50.893Z,41.38
2024-04-16T00:33:50.862Z,41.38
2024-04-16T00:34:50.878Z,41.38
2024-04-16T00:35:50.912Z,41.37
2024-04-16T00:36:50.912Z,41.34
2024-04-16T00:37:50.854Z,41.37
2024-04-16T00:38:50.860Z,41.34
2024-04-16T00:39:51.015Z,41.30
2024-04-16T00:40:50.856Z,41.34
2024-04-16T00:41:50.837Z,41.32
2024-04-16T00:42:50.842Z,41.31
2024-04-16T00:43:50.828Z,41.30
2024-04-16T00:44:50.989Z,41.30
2024-04-16T00:45:50.817Z,41.28
2024-04-16T00:46:50.834Z,41.28
2024-04-16T00:47:50.872Z,41.27
2024-04-16T00:48:50.795Z,41.27
2024-04-16T00:49:50.796Z,41.26
2024-04-16T00:50:50.846Z,41.28
2024-04-16T00:51:50.780Z,41.25
2024-04-16T00:52:50.790Z,41.25
2024-04-16T00:53:50.766Z,41.26
2024-04-16T00:54:50.764Z,41.21
2024-04-16T00:55:50.756Z,41.23
2024-04-16T00:56:50.933Z,41.24
2024-04-16T00:57:50.751Z,41.22
2024-04-16T00:58:50.750Z,41.21
2024-04-16T00:59:50.751Z,41.18
2024-04-16T01:00:50.772Z,41.17
2024-04-16T01:01:50.803Z,41.18
2024-04-16T01:02:50.861Z,41.17
2024-04-16T01:03:50.830Z,41.17
2024-04-16T01:04:50.767Z,41.16
2024-04-16T01:05:50.736Z,41.18
2024-04-16T01:06:50.755Z,41.16
2024-04-16T01:07:50.739Z,41.15
2024-04-16T01:08:50.909Z,41.16
2024-04-16T01:09:50.746Z,41.13
2024-04-16T01:10:50.748Z,41.11
2024-04-16T01:11:50.749Z,41.13
2024-04-16T01:12:50.741Z,41.14
2024-04-16T01:13:50.739Z,41.11
2024-04-16T01:14:50.744Z,41.14
2024-04-16T01:15:50.783Z,41.12
2024-04-16T01:16:50.736Z,41.09
2024-04-16T01:17:50.806Z,41.10
2024-04-16T01:18:50.736Z,41.09
2024-04-16T01:19:50.751Z,41.10
2024-04-16T01:20:50.734Z,41.09
2024-04-16T01:21:50.740Z,41.09
2024-04-16T01:22:50.770Z,41.08
2024-04-16T01:23:50.735Z,41.08
2024-04-16T01:24:50.746Z,41.03
2024-04-16T01:25:50.736Z,41.06
2024-04-16T01:26:50.735Z,41.05
2024-04-16T01:27:50.735Z,41.01
2024-04-16T01:28:50.934Z,41.02
2024-04-16T01:29:50.745Z,41.03
2024-04-16T01:30:50.728Z,41.00
2024-04-16T01:31:50.752Z,41.01
2024-04-16T01:32:50.735Z,41.02
2024-04-16T01:33:50.822Z,41.02
2024-04-16T01:34:50.737Z,41.00
2024-04-16T01:35:50.726Z,40.98
2024-04-16T01:36:50.725Z,40.99
2024-04-16T01:37:50.725Z,40.96
2024-04-16T01:38:50.734Z,40.98
2024-04-16T01:39:50.726Z,40.96
2024-04-16T01:40:50.909Z,40.97
2024-04-16T01:41:50.702Z,40.97
2024-04-16T01:42:50.702Z,40.94
2024-04-16T01:43:50.707Z,40.95
2024-04-16T01:44:50.693Z,40.94
2024-04-16T01:45:50.686Z,40.93
2024-04-16T01:46:50.792Z,40.93
2024-04-16T01:47:50.777Z,40.92
2024-04-16T01:48:50.680Z,40.90
2024-04-16T01:49:50.656Z,40.88
2024-04-16T01:50:50.663Z,40.89
2024-04-16T01:51:50.652Z,40.89
2024-04-16T01:52:50.647Z,40.86
2024-04-16T01:53:50.721Z,40.85
2024-04-16T01:54:50.649Z,40.85
2024-04-16T01:55:50.648Z,40.84
2024-04-16T01:56:50.629Z,40.83
2024-04-16T01:57:50.621Z,40.83
2024-04-16T01:58:50.617Z,40.85
2024-04-16T01:59:50.657Z,40.82
2024-04-16T02:00:50.655Z,40.82
2024-04-16T02:01:50.638Z,40.83
2024-04-16T02:02:50.591Z,40.82
2024-04-16T02:03:50.618Z,40.79
2024-04-16T02:04:50.686Z,40.79
2024-04-16T02:05:50.574Z,40.75
2024-04-16T02:06:50.602Z,40.75
2024-04-16T02:07:50.571Z,40.74
2024-04-16T02:08:50.578Z,40.76
2024-04-16T02:09:50.560Z,40.75
2024-04-16T02:10:50.578Z,40.78
2024-04-16T02:11:50.596Z,40.75
2024-04-16T02:12:50.718Z,40.71
2024-04-16T02:13:50.579Z,40.76
2024-04-16T02:14:50.559Z,40.73
2024-04-16T02:15:50.566Z,40.72
2024-04-16T02:16:50.564Z,40.72
2024-04-16T02:17:50.618Z,40.71
2024-04-16T02:18:50.765Z,40.69
2024-04-16T02:19:50.547Z,40.69
2024-04-16T02:20:50.545Z,40.65
2024-04-16T02:21:50.536Z,40.68
2024-04-16T02:22:50.541Z,40.66
2024-04-16T02:23:50.570Z,40.67
2024-04-16T02:24:50.569Z,40.69
2024-04-16T02:25:50.620Z,40.66
2024-04-16T02:26:51.262Z,40.65
2024-04-16T02:27:50.630Z,40.63
2024-04-16T02:28:50.641Z,40.61
2024-04-16T02:29:50.669Z,40.58
2024-04-16T02:30:50.677Z,40.59
2024-04-16T02:31:50.966Z,40.61
2024-04-16T02:32:50.773Z,40.61
2024-04-16T02:33:50.732Z,40.57
2024-04-16T02:34:50.743Z,40.61
2024-04-16T02:35:50.749Z,40.60
2024-04-16T02:36:50.759Z,40.59
2024-04-16T02:37:51.082Z,40.56
2024-04-16T02:38:50.826Z,40.57
2024-04-16T02:39:50.874Z,40.56
2024-04-16T02:40:50.824Z,40.56
2024-04-16T02:41:50.835Z,40.52
2024-04-16T02:42:50.864Z,40.55
2024-04-16T02:43:50.952Z,40.53
2024-04-16T02:44:50.876Z,40.54
2024-04-16T02:45:50.879Z,40.53
2024-04-16T02:46:50.919Z,40.53
2024-04-16T02:47:51.035Z,40.52
2024-04-16T02:48:50.915Z,40.49
2024-04-16T02:49:50.929Z,40.49
2024-04-16T02:50:51.112Z,40.50
2024-04-16T02:51:50.966Z,40.48
2024-04-16T02:52:50.966Z,40.49
2024-04-16T02:53:50.981Z,40.48
2024-04-16T02:54:51.026Z,40.45
2024-04-16T02:55:51.021Z,40.46
2024-04-16T02:56:51.206Z,40.42
2024-04-16T02:57:51.040Z,40.42
2024-04-16T02:58:51.062Z,40.43
2024-04-16T02:59:51.282Z,40.40
2024-04-16T03:00:51.126Z,40.39
2024-04-16T03:01:51.151Z,40.39
2024-04-16T03:02:51.502Z,40.35
2024-04-16T03:03:51.159Z,40.36
2024-04-16T03:04:51.168Z,40.39
2024-04-16T03:05:51.183Z,40.32
2024-04-16T03:06:51.238Z,40.30
2024-04-16T03:07:51.211Z,40.33
2024-04-16T03:08:51.235Z,40.34
2024-04-16T03:09:51.247Z,40.33
2024-04-16T03:10:51.351Z,40.31
2024-04-16T03:11:51.283Z,40.30
2024-04-16T03:12:51.297Z,40.31
2024-04-16T03:13:51.389Z,40.30
2024-04-16T03:14:51.341Z,40.29
2024-04-16T03:15:51.357Z,40.28
2024-04-16T03:16:51.464Z,40.26
2024-04-16T03:17:51.415Z,40.29
2024-04-16T03:18:52.268Z,40.27
2024-04-16T03:19:51.444Z,40.27
2024-04-16T03:20:51.467Z,40.25
2024-04-16T03:21:51.468Z,40.22
2024-04-16T03:22:51.500Z,40.22
2024-04-16T03:23:51.547Z,40.24
2024-04-16T03:24:51.531Z,40.23
2024-04-16T03:25:51.526Z,40.22
2024-04-16T03:26:51.564Z,40.23
2024-04-16T03:27:51.567Z,40.23
2024-04-16T03:28:51.583Z,40.20
2024-04-16T03:29:51.600Z,40.20
2024-04-16T03:30:51.641Z,40.19
2024-04-16T03:31:51.806Z,40.19
2024-04-16T03:32:51.703Z,40.17
2024-04-16T03:33:51.677Z,40.19
2024-04-16T03:34:51.703Z,40.17
2024-04-16T03:35:51.709Z,40.17
2024-04-16T03:36:51.713Z,40.17
2024-04-16T03:37:51.734Z,40.16
2024-04-16T03:38:51.742Z,40.13
2024-04-16T03:39:51.905Z,40.14
2024-04-16T03:40:51.796Z,40.14
2024-04-16T03:41:51.803Z,40.11
2024-04-16T03:42:51.815Z,40.12
2024-04-16T03:43:54.443Z,40.11
2024-04-16T03:44:51.838Z,40.10
2024-04-16T03:45:51.853Z,40.07
2024-04-16T03:46:51.838Z,40.07
2024-04-16T03:47:51.935Z,40.05
2024-04-16T03:48:51.826Z,40.06
2024-04-16T03:49:51.851Z,40.06
2024-04-16T03:50:51.855Z,40.04
2024-04-16T03:51:51.856Z,40.04
2024-04-16T03:52:51.864Z,40.03
2024-04-16T03:53:51.829Z,39.99
2024-04-16T03:54:51.819Z,40.00
2024-04-16T03:55:51.844Z,40.01
2024-04-16T03:56:51.855Z,40.00
2024-04-16T03:57:51.833Z,39.97
2024-04-16T03:58:51.846Z,39.98
2024-04-16T03:59:51.829Z,39.99
2024-04-16T04:00:51.855Z,39.99
2024-04-16T04:01:51.827Z,39.97
2024-04-16T04:02:51.848Z,39.96
2024-04-16T04:03:51.897Z,39.97
2024-04-16T04:04:51.968Z,39.95
2024-04-16T04:05:51.846Z,39.92
2024-04-16T04:06:51.842Z,39.92
2024-04-16T04:07:51.869Z,39.92
2024-04-16T04:08:51.849Z,39.88
2024-04-16T04:09:51.951Z,39.88
2024-04-16T04:10:51.947Z,39.88
2024-04-16T04:11:51.842Z,39.88
2024-04-16T04:12:51.842Z,39.87
2024-04-16T04:13:51.846Z,39.86
2024-04-16T04:14:51.845Z,39.84
2024-04-16T04:15:51.858Z,39.83
2024-04-16T04:16:51.844Z,39.84
2024-04-16T04:17:52.395Z,39.84
2024-04-16T04:18:51.847Z,39.84
2024-04-16T04:19:51.950Z,39.81
2024-04-16T04:20:51.882Z,39.80
2024-04-16T04:21:51.854Z,39.80
2024-04-16T04:22:51.847Z,39.78
2024-04-16T04:23:51.846Z,39.76
2024-04-16T04:24:59.071Z,39.80
2024-04-16T04:25:59.063Z,39.78
2024-04-16T04:26:59.085Z,39.79
2024-04-16T04:27:59.101Z,39.77
2024-04-16T04:28:59.069Z,39.75
2024-04-16T04:29:59.074Z,39.77
2024-04-16T04:31:06.334Z,39.78
2024-04-16T04:32:06.359Z,39.76
2024-04-16T04:33:06.338Z,39.74
2024-04-16T04:34:06.317Z,39.72
2024-04-16T04:35:06.358Z,39.71
2024-04-16T04:36:06.283Z,39.70
2024-04-16T04:37:06.306Z,39.69
2024-04-16T04:38:06.294Z,39.67
2024-04-16T04:39:06.888Z,39.67
2024-04-16T04:40:06.321Z,39.66
2024-04-16T04:41:06.283Z,39.65
2024-04-16T04:42:06.293Z,39.66
2024-04-16T04:43:06.910Z,39.60
2024-04-16T04:44:06.266Z,39.64
2024-04-16T04:45:06.271Z,39.63
2024-04-16T04:46:06.317Z,39.62
2024-04-16T04:47:06.307Z,39.60
2024-04-16T04:48:06.352Z,39.61
2024-04-16T04:49:06.309Z,39.59
2024-04-16T04:50:06.285Z,39.59
2024-04-16T04:51:06.270Z,39.59
2024-04-16T04:52:06.311Z,39.58
2024-04-16T04:53:06.283Z,39.56
2024-04-16T04:54:06.282Z,39.58
2024-04-16T04:55:06.322Z,39.56
2024-04-16T04:56:06.278Z,39.56
2024-04-16T04:57:06.287Z,39.53
2024-04-16T04:58:06.300Z,39.55
2024-04-16T04:59:06.289Z,39.54
2024-04-16T05:00:06.296Z,39.54
2024-04-16T05:01:06.372Z,39.51
2024-04-16T05:02:06.340Z,39.49
2024-04-16T05:03:06.304Z,39.50
2024-04-16T05:04:06.398Z,39.51
2024-04-16T05:05:06.367Z,39.51
2024-04-16T05:06:06.324Z,39.47
2024-04-16T05:07:06.335Z,39.49
2024-04-16T05:08:06.312Z,39.49
2024-04-16T05:09:06.315Z,39.48
2024-04-16T05:10:06.361Z,39.43
2024-04-16T05:11:06.500Z,39.44
2024-04-16T05:12:06.317Z,39.43
2024-04-16T05:13:06.347Z,39.45
2024-04-16T05:14:06.317Z,39.43
2024-04-16T05:15:06.320Z,39.44
2024-04-16T05:16:06.372Z,39.43
2024-04-16T05:17:06.358Z,39.38
2024-04-16T05:18:06.412Z,39.39
2024-04-16T05:19:11.424Z,39.37
2024-04-16T05:20:06.402Z,39.53
2024-04-16T05:21:06.417Z,39.52
2024-04-16T05:22:06.417Z,39.56
2024-04-16T05:23:06.413Z,39.66
2024-04-16T05:24:06.413Z,39.82
2024-04-16T05:25:08.012Z,39.79
2024-04-16T05:26:06.411Z,39.88
2024-04-16T05:27:06.482Z,39.92
2024-04-16T05:28:06.536Z,39.61
2024-04-16T05:29:06.431Z,39.74
2024-04-16T05:30:07.893Z,39.71
2024-04-16T05:31:06.447Z,39.71
2024-04-16T05:32:07.395Z,39.67
2024-04-16T05:33:07.423Z,39.38
2024-04-16T05:34:06.535Z,39.16
2024-04-16T05:35:07.070Z,39.27
2024-04-16T05:36:06.903Z,39.45
2024-04-16T05:37:08.375Z,39.52
2024-04-16T05:38:07.394Z,39.51
2024-04-16T05:39:06.562Z,39.47
2024-04-16T05:40:08.530Z,39.41
2024-04-16T05:41:06.596Z,39.38
2024-04-16T05:42:06.630Z,39.34
2024-04-16T05:43:06.718Z,39.10
2024-04-16T05:44:06.702Z,39.10
2024-04-16T05:45:06.907Z,39.29
2024-04-16T05:46:06.750Z,39.42
2024-04-16T05:47:06.744Z,39.32
2024-04-16T05:48:06.936Z,39.36
2024-04-16T05:49:06.851Z,39.44
2024-04-16T05:50:06.850Z,39.37
2024-04-16T05:51:06.862Z,39.44
2024-04-16T05:52:06.918Z,39.45
2024-04-16T05:53:07.012Z,39.44
2024-04-16T05:54:08.135Z,39.39
2024-04-16T05:55:07.060Z,39.46
2024-04-16T05:56:08.902Z,39.43
2024-04-16T05:57:07.058Z,39.37
2024-04-16T05:58:10.525Z,39.30
2024-04-16T05:59:07.065Z,39.30
2024-04-16T06:00:07.033Z,39.29
2024-04-16T06:01:08.061Z,39.21
2024-04-16T06:02:07.166Z,39.20
2024-04-16T06:03:07.033Z,39.31
2024-04-16T06:04:07.979Z,39.26
2024-04-16T06:05:08.028Z,39.27
2024-04-16T06:06:07.018Z,39.25
2024-04-16T06:07:10.967Z,39.28
2024-04-16T06:08:07.030Z,39.29
2024-04-16T06:09:07.911Z,39.24
2024-04-16T06:10:07.080Z,39.21
2024-04-16T06:11:07.037Z,39.21
2024-04-16T06:12:07.036Z,39.18
2024-04-16T06:13:07.058Z,39.15
2024-04-16T06:14:07.043Z,39.13
2024-04-16T06:15:07.069Z,39.18
2024-04-16T06:16:07.159Z,39.15
2024-04-16T06:17:07.058Z,39.13
2024-04-16T06:18:07.065Z,39.11
2024-04-16T06:19:07.079Z,39.04
2024-04-16T06:20:10.559Z,38.99
2024-04-16T06:21:08.930Z,38.84
2024-04-16T06:22:07.180Z,38.91
2024-04-16T06:23:07.304Z,39.02
2024-04-16T06:24:07.042Z,39.00
2024-04-16T06:25:07.095Z,38.72
2024-04-16T06:26:07.053Z,38.16
2024-04-16T06:27:11.925Z,37.65
2024-04-16T06:28:07.058Z,37.93
2024-04-16T06:29:07.914Z,34.19
2024-04-16T06:30:07.057Z,32.65
2024-04-16T06:31:07.934Z,32.93
2024-04-16T06:32:07.943Z,33.27
2024-04-16T06:33:07.071Z,33.22
2024-04-16T06:34:07.928Z,33.53
2024-04-16T06:35:07.171Z,34.49
2024-04-16T06:36:07.049Z,35.44
2024-04-16T06:37:07.075Z,35.87
2024-04-16T06:38:07.824Z,36.55
2024-04-16T06:39:07.098Z,36.48
2024-04-16T06:40:08.092Z,36.48
2024-04-16T06:41:07.087Z,36.56
2024-04-16T06:42:08.105Z,36.39
2024-04-16T06:43:07.079Z,36.40
2024-04-16T06:44:07.056Z,36.46
2024-04-16T06:45:07.072Z,36.64
2024-04-16T06:46:07.113Z,36.44
2024-04-16T06:47:07.062Z,36.27
2024-04-16T06:48:07.291Z,36.60
2024-04-16T06:49:13.656Z,36.70
2024-04-16T06:50:08.099Z,36.08
2024-04-16T06:51:07.087Z,36.58
2024-04-16T06:52:07.929Z,36.00
2024-04-16T06:53:07.072Z,35.84
2024-04-16T06:54:07.072Z,35.74
2024-04-16T06:55:07.123Z,36.22
2024-04-16T06:56:07.138Z,35.82
2024-04-16T06:57:07.098Z,36.57
2024-04-16T06:58:07.100Z,36.56
2024-04-16T06:59:07.877Z,36.97
2024-04-16T07:00:07.263Z,37.28
2024-04-16T07:01:07.154Z,37.39
2024-04-16T07:02:07.071Z,37.46
2024-04-16T07:03:07.103Z,37.58
2024-04-16T07:04:07.144Z,37.61
2024-04-16T07:05:07.231Z,37.52
2024-04-16T07:06:07.901Z,37.56
2024-04-16T07:07:08.908Z,37.56
2024-04-16T07:08:07.062Z,37.54
2024-04-16T07:09:08.600Z,37.34
2024-04-16T07:10:07.092Z,37.41
2024-04-16T07:11:07.058Z,37.41
2024-04-16T07:12:07.067Z,37.43
2024-04-16T07:13:07.100Z,37.38
2024-04-16T07:14:07.063Z,37.38
2024-04-16T07:15:07.076Z,32.53
2024-04-16T07:16:07.215Z,30.92
2024-04-16T07:17:07.097Z,35.35
2024-04-16T07:18:07.252Z,35.52
2024-04-16T07:19:07.107Z,35.66
2024-04-16T07:20:07.954Z,35.72
2024-04-16T07:21:07.094Z,35.57
2024-04-16T07:22:07.144Z,35.40
2024-04-16T07:23:07.099Z,35.34
2024-04-16T07:24:07.114Z,34.76
2024-04-16T07:25:07.194Z,32.57
2024-04-16T07:26:07.335Z,30.98
2024-04-16T07:27:07.115Z,30.42
2024-04-16T07:28:07.131Z,30.31
2024-04-16T07:29:07.108Z,30.28
2024-04-16T07:30:07.112Z,29.57
2024-04-16T07:31:13.575Z,29.45
2024-04-16T07:32:08.170Z,29.81
2024-04-16T07:33:07.222Z,30.27
2024-04-16T07:34:07.154Z,30.78
2024-04-16T07:35:07.119Z,31.36
2024-04-16T07:36:07.102Z,31.64
2024-04-16T07:37:07.125Z,31.71
2024-04-16T07:38:07.101Z,31.92
2024-04-16T07:39:07.114Z,32.08
2024-04-16T07:40:07.140Z,32.18
2024-04-16T07:41:07.107Z,32.81
2024-04-16T07:42:07.122Z,32.88
2024-04-16T07:43:07.110Z,33.09
2024-04-16T07:44:07.194Z,33.20
2024-04-16T07:45:07.130Z,33.22
2024-04-16T07:46:07.216Z,33.16
2024-04-16T07:47:07.256Z,33.10
2024-04-16T07:48:07.263Z,33.17
2024-04-16T07:49:07.287Z,33.39
2024-04-16T07:50:07.294Z,33.39
2024-04-16T07:51:07.315Z,33.31
2024-04-16T07:52:07.381Z,33.23
2024-04-16T07:53:07.381Z,32.96
2024-04-16T07:54:07.425Z,32.89
2024-04-16T07:55:07.510Z,33.00
2024-04-16T07:56:07.499Z,32.98
2024-04-16T07:57:07.515Z,32.70
2024-04-16T07:58:07.570Z,32.50
2024-04-16T07:59:07.556Z,32.62
2024-04-16T08:00:07.592Z,32.60
2024-04-16T08:01:07.737Z,32.51
2024-04-16T08:02:07.763Z,32.80
2024-04-16T08:03:07.685Z,33.04
2024-04-16T08:04:07.752Z,32.19
2024-04-16T08:05:07.805Z,31.21
2024-04-16T08:06:07.750Z,30.30
2024-04-16T08:07:07.851Z,29.71
2024-04-16T08:08:11.563Z,29.81
2024-04-16T08:09:08.833Z,29.63
2024-04-16T08:10:07.880Z,30.28
2024-04-16T08:11:07.834Z,30.89
2024-04-16T08:12:07.834Z,31.78
2024-04-16T08:13:08.070Z,31.73
2024-04-16T08:14:09.654Z,31.83
2024-04-16T08:15:07.828Z,31.98
2024-04-16T08:16:07.987Z,32.21
2024-04-16T08:17:07.962Z,32.38
2024-04-16T08:18:09.477Z,32.42
2024-04-16T08:19:08.442Z,32.69
2024-04-16T08:20:09.930Z,32.69
2024-04-16T08:21:07.923Z,32.79
2024-04-16T08:22:11.163Z,33.38
2024-04-16T08:23:08.827Z,32.87
2024-04-16T08:24:07.812Z,33.10
2024-04-16T08:25:07.858Z,33.11
2024-04-16T08:26:09.721Z,29.46
2024-04-16T08:27:07.880Z,26.64
2024-04-16T08:28:07.837Z,25.74
2024-04-16T08:29:08.339Z,26.49
2024-04-16T08:30:07.886Z,26.74
2024-04-16T08:31:07.907Z,26.13
2024-04-16T08:32:09.268Z,26.49
2024-04-16T08:33:08.747Z,26.76
2024-04-16T08:34:09.585Z,26.42
2024-04-16T08:35:07.958Z,26.17
2024-04-16T08:36:07.926Z,25.86
2024-04-16T08:37:07.913Z,25.54
2024-04-16T08:38:10.496Z,25.14
2024-04-16T08:39:07.947Z,24.99
2024-04-16T08:40:07.981Z,25.34
2024-04-16T08:41:07.913Z,24.64
2024-04-16T08:42:07.911Z,24.63
2024-04-16T08:43:07.952Z,24.21
2024-04-16T08:44:10.610Z,23.67
2024-04-16T08:45:07.938Z,23.50
2024-04-16T08:46:07.957Z,23.26
2024-04-16T08:47:07.990Z,23.24
2024-04-16T08:48:07.949Z,23.23
2024-04-16T08:49:08.026Z,23.66
2024-04-16T08:50:07.957Z,23.81
2024-04-16T08:51:08.955Z,23.01
2024-04-16T08:52:10.950Z,22.64
2024-04-16T08:53:07.965Z,22.48
2024-04-16T08:54:07.966Z,22.37
2024-04-16T08:55:08.089Z,22.41
2024-04-16T08:56:08.061Z,22.38
2024-04-16T08:57:08.926Z,22.11
2024-04-16T08:58:09.029Z,22.07
2024-04-16T08:59:07.988Z,22.25
2024-04-16T09:00:08.920Z,23.36
2024-04-16T09:01:08.266Z,24.07
2024-04-16T09:02:07.995Z,24.59
2024-04-16T09:03:08.900Z,24.52
2024-04-16T09:04:08.075Z,22.70
2024-04-16T09:05:08.026Z,22.84
2024-04-16T09:06:08.575Z,21.85
2024-04-16T09:07:08.049Z,22.02
2024-04-16T09:08:08.007Z,21.90
2024-04-16T09:09:10.733Z,20.93
2024-04-16T09:10:08.073Z,20.65
2024-04-16T09:11:08.051Z,20.42
2024-04-16T09:12:08.045Z,20.71
2024-04-16T09:13:08.158Z,22.00
2024-04-16T09:14:08.035Z,22.58
2024-04-16T09:15:08.041Z,21.84
2024-04-16T09:16:08.178Z,22.07
2024-04-16T09:17:08.089Z,22.78
2024-04-16T09:18:08.078Z,22.98
2024-04-16T09:19:08.135Z,23.32
2024-04-16T09:20:08.065Z,23.00
2024-04-16T09:21:08.069Z,22.87
2024-04-16T09:22:08.091Z,21.77
2024-04-16T09:23:08.087Z,20.41
2024-04-16T09:24:08.109Z,20.56
2024-04-16T09:25:08.191Z,21.36
2024-04-16T09:26:08.105Z,22.40
2024-04-16T09:27:09.357Z,22.24
2024-04-16T09:28:08.183Z,20.98
2024-04-16T09:29:08.135Z,20.48
2024-04-16T09:30:08.210Z,20.13
2024-04-16T09:31:08.199Z,20.00
2024-04-16T09:32:08.168Z,19.88
2024-04-16T09:33:11.513Z,19.61
2024-04-16T09:34:08.413Z,19.65
2024-04-16T09:35:08.197Z,19.55
2024-04-16T09:36:08.241Z,19.53
2024-04-16T09:37:08.204Z,19.53
2024-04-16T09:38:08.214Z,19.59
2024-04-16T09:39:08.197Z,19.36
2024-04-16T09:40:08.234Z,19.16
2024-04-16T09:41:08.224Z,19.21
2024-04-16T09:42:08.210Z,19.20
2024-04-16T09:43:08.444Z,18.94
2024-04-16T09:44:08.253Z,18.90
2024-04-16T09:45:08.252Z,19.06
2024-04-16T09:46:08.263Z,18.96
2024-04-16T09:47:08.328Z,18.98
2024-04-16T09:48:08.355Z,18.98
2024-04-16T09:49:08.317Z,19.08
2024-04-16T09:50:16.412Z,19.05
2024-04-16T09:51:09.345Z,19.05
2024-04-16T09:52:08.350Z,19.11
2024-04-16T09:53:08.320Z,19.03
2024-04-16T09:54:08.318Z,18.96
2024-04-16T09:55:08.388Z,18.96
2024-04-16T09:56:08.349Z,19.21
2024-04-16T09:57:08.328Z,19.33
2024-04-16T09:58:08.357Z,18.78
2024-04-16T09:59:08.345Z,18.48
2024-04-16T10:00:08.359Z,18.41
2024-04-16T10:01:08.505Z,18.50
2024-04-16T10:02:08.505Z,18.43
2024-04-16T10:03:08.589Z,18.72
2024-04-16T10:04:08.690Z,19.23
2024-04-16T10:05:08.712Z,19.68
2024-04-16T10:06:08.769Z,19.39
2024-04-16T10:07:08.935Z,19.19
2024-04-16T10:08:08.890Z,19.11
2024-04-16T10:09:08.936Z,20.00
2024-04-16T10:10:09.063Z,21.11
2024-04-16T10:11:14.609Z,21.44
2024-04-16T10:12:10.236Z,21.59
2024-04-16T10:13:09.132Z,21.71
2024-04-16T10:14:09.111Z,22.23
2024-04-16T10:15:09.094Z,22.07
2024-04-16T10:16:09.164Z,22.73
2024-04-16T10:17:09.105Z,22.94
2024-04-16T10:18:09.227Z,22.69
2024-04-16T10:19:09.123Z,22.91
2024-04-16T10:20:09.112Z,23.23
2024-04-16T10:21:09.116Z,23.68
2024-04-16T10:22:09.388Z,23.85
2024-04-16T10:23:09.283Z,23.72
2024-04-16T10:24:09.379Z,24.04
2024-04-16T10:25:09.236Z,24.03
2024-04-16T10:26:09.331Z,23.98
2024-04-16T10:27:09.296Z,23.87
2024-04-16T10:28:09.446Z,24.13
2024-04-16T10:29:09.331Z,24.06
2024-04-16T10:30:09.368Z,24.10
2024-04-16T10:31:09.415Z,24.26
2024-04-16T10:32:10.736Z,24.23
2024-04-16T10:33:09.531Z,24.29
2024-04-16T10:34:09.469Z,24.26
2024-04-16T10:35:09.481Z,24.37
2024-04-16T10:36:09.494Z,24.39
2024-04-16T10:37:09.523Z,24.44
2024-04-16T10:38:10.811Z,24.49
2024-04-16T10:39:09.564Z,24.65
2024-04-16T10:40:09.665Z,24.57
2024-04-16T10:41:09.607Z,24.66
2024-04-16T10:42:09.617Z,24.71
2024-04-16T10:43:09.701Z,24.75
2024-04-16T10:44:09.654Z,24.89
2024-04-16T10:45:09.707Z,24.92
2024-04-16T10:46:09.750Z,24.94
2024-04-16T10:47:09.795Z,24.91
2024-04-16T10:48:09.736Z,24.97
2024-04-16T10:49:10.459Z,25.10
2024-04-16T10:50:09.821Z,25.05
2024-04-16T10:51:09.794Z,25.10
2024-04-16T10:52:09.825Z,25.16
2024-04-16T10:53:10.002Z,25.16
2024-04-16T10:54:09.981Z,25.18
2024-04-16T10:55:10.081Z,25.33
2024-04-16T10:56:09.904Z,25.35
2024-04-16T10:57:09.907Z,25.37
2024-04-16T10:58:09.949Z,25.41
2024-04-16T10:59:09.914Z,25.46
2024-04-16T11:00:11.138Z,25.54
2024-04-16T11:01:10.089Z,25.63
2024-04-16T11:02:10.049Z,25.60
2024-04-16T11:03:10.230Z,25.60
2024-04-16T11:04:10.205Z,25.74
2024-04-16T11:05:10.269Z,25.88
2024-04-16T11:06:10.059Z,25.89
2024-04-16T11:07:10.250Z,25.95
2024-04-16T11:08:10.108Z,26.09
2024-04-16T11:09:10.188Z,26.00
2024-04-16T11:10:10.335Z,25.91
2024-04-16T11:11:10.245Z,25.84
2024-04-16T11:12:10.212Z,25.94
2024-04-16T11:13:10.254Z,26.18
2024-04-16T11:14:10.257Z,26.27
2024-04-16T11:15:10.429Z,26.30
2024-04-16T11:16:10.313Z,26.25
2024-04-16T11:17:10.300Z,26.64
2024-04-16T11:18:10.499Z,26.76
2024-04-16T11:19:10.373Z,26.84
2024-04-16T11:20:10.350Z,26.94
2024-04-16T11:21:10.356Z,26.95
2024-04-16T11:22:10.522Z,26.86
2024-04-16T11:23:10.358Z,26.95
2024-04-16T11:24:10.368Z,26.92
2024-04-16T11:25:10.398Z,26.86
2024-04-16T11:26:10.397Z,26.91
2024-04-16T11:27:10.404Z,27.03
2024-04-16T11:28:10.589Z,27.02
2024-04-16T11:29:10.422Z,27.25
2024-04-16T11:30:10.442Z,27.17
2024-04-16T11:31:10.454Z,27.23
2024-04-16T11:32:10.484Z,27.22
2024-04-16T11:33:19.923Z,27.21
2024-04-16T11:34:11.848Z,27.33
2024-04-16T11:35:10.522Z,27.28
2024-04-16T11:36:13.339Z,27.37
2024-04-16T11:37:10.504Z,27.45
2024-04-16T11:38:10.527Z,27.60
2024-04-16T11:39:10.462Z,27.84
2024-04-16T11:40:10.543Z,27.99
2024-04-16T11:41:12.854Z,28.13
2024-04-16T11:42:10.449Z,28.36
2024-04-16T11:43:10.537Z,28.37
2024-04-16T11:44:11.460Z,28.44
2024-04-16T11:45:10.444Z,28.55
2024-04-16T11:46:10.465Z,28.59
2024-04-16T11:47:10.483Z,28.67
2024-04-16T11:48:10.524Z,28.62
2024-04-16T11:49:10.448Z,28.55
2024-04-16T11:50:12.163Z,28.52
2024-04-16T11:51:10.414Z,28.46
2024-04-16T11:52:10.443Z,28.46
2024-04-16T11:53:10.418Z,28.44
2024-04-16T11:54:10.479Z,28.49
2024-04-16T11:55:10.439Z,28.55
2024-04-16T11:56:13.006Z,28.72
2024-04-16T11:57:10.401Z,28.64
2024-04-16T11:58:10.426Z,28.79
2024-04-16T11:59:10.406Z,28.81
2024-04-16T12:00:10.479Z,28.81
2024-04-16T12:01:10.505Z,28.79
2024-04-16T12:02:13.184Z,28.75
2024-04-16T12:03:10.402Z,28.86
2024-04-16T12:04:10.580Z,28.99
2024-04-16T12:05:10.477Z,29.02
2024-04-16T12:06:10.459Z,29.04
2024-04-16T12:07:10.440Z,29.15
2024-04-16T12:08:11.888Z,29.15
2024-04-16T12:09:10.390Z,29.16
2024-04-16T12:10:10.409Z,29.19
2024-04-16T12:11:10.457Z,29.40
2024-04-16T12:12:10.442Z,29.43
2024-04-16T12:13:10.407Z,29.49
2024-04-16T12:14:11.796Z,29.52
2024-04-16T12:15:10.417Z,29.57
2024-04-16T12:16:10.407Z,29.59
2024-04-16T12:17:10.408Z,29.59
2024-04-16T12:18:10.477Z,29.57
2024-04-16T12:19:10.411Z,29.56
2024-04-16T12:20:11.791Z,29.62
2024-04-16T12:21:10.390Z,29.71
2024-04-16T12:22:10.426Z,29.84
2024-04-16T12:23:10.410Z,29.89
2024-04-16T12:24:10.441Z,29.96
2024-04-16T12:25:10.443Z,30.16
2024-04-16T12:26:10.413Z,30.13
2024-04-16T12:27:10.399Z,30.10
2024-04-16T12:28:10.428Z,30.08
2024-04-16T12:29:10.418Z,30.02
2024-04-16T12:30:10.469Z,30.09
2024-04-16T12:31:10.417Z,30.08
2024-04-16T12:32:10.514Z,30.08
2024-04-16T12:33:15.698Z,30.10
2024-04-16T12:34:11.436Z,30.06
2024-04-16T12:35:12.479Z,30.02
2024-04-16T12:36:10.452Z,30.03
2024-04-16T12:37:10.393Z,30.02
2024-04-16T12:38:10.402Z,30.00
2024-04-16T12:39:10.402Z,30.02
2024-04-16T12:40:10.422Z,29.95
2024-04-16T12:41:10.393Z,29.91
2024-04-16T12:42:10.449Z,29.96
2024-04-16T12:43:10.494Z,29.89
2024-04-16T12:44:10.394Z,29.88
2024-04-16T12:45:10.414Z,29.91
2024-04-16T12:46:10.563Z,29.90
2024-04-16T12:47:10.390Z,29.80
2024-04-16T12:48:10.488Z,29.86
2024-04-16T12:49:10.403Z,29.83
2024-04-16T12:50:10.386Z,29.84
2024-04-16T12:51:10.392Z,29.86
2024-04-16T12:52:10.391Z,29.88
2024-04-16T12:53:10.380Z,29.90